Alcoa, Tennessee
Current Conditions -  °F | °C
As of 2:53 AM on Wednesday 26 Nov 2014 (Local Time) from KTYS Reporting Station
Overcast Overcast  
Wind Chill: 42°   Ceiling: 11000
Heat Index: 45°   Visibility: 10mi
Dew Point: 30°   Wind: 6mph
Humidity: 56%   Direction: 290°WNW
Pressure: 30"   Gusts: NA
Location:  35.77°N, 83.98°W
Report Text: KTYS 260753Z 29005KT 10SM BKN110 OVC250 07/M01 A3000 RMK AO2 SLP156 T00721011
Loading
Personal Weather Stations






























Interactive Weather Map New forecast layout! Learn more

10-Day Weather Forecast

Advertisements
Track Severe Weather on mobile